createdAt,value
2018-09-25T00:00:16.795Z,12.40
2018-09-25T00:00:55.559Z,12.40
2018-09-25T00:01:35.068Z,12.40
2018-09-25T00:02:13.816Z,12.40
2018-09-25T00:02:52.440Z,12.50
2018-09-25T00:03:31.065Z,12.50
2018-09-25T00:04:09.811Z,12.40
2018-09-25T00:04:49.181Z,12.30
2018-09-25T00:05:27.934Z,12.30
2018-09-25T00:06:07.323Z,12.20
2018-09-25T00:06:46.036Z,12.20
2018-09-25T00:07:25.549Z,12.30
2018-09-25T00:08:04.267Z,12.30
2018-09-25T00:08:42.914Z,12.30
2018-09-25T00:09:22.524Z,12.40
2018-09-25T00:10:01.107Z,12.30
2018-09-25T00:10:39.895Z,13.30
2018-09-25T00:11:18.523Z,12.30
2018-09-25T00:11:57.169Z,12.30
2018-09-25T00:12:36.648Z,12.20
2018-09-25T00:13:15.376Z,12.20
2018-09-25T00:13:54.105Z,13.20
2018-09-25T00:14:33.636Z,12.30
2018-09-25T00:15:13.162Z,12.30
2018-09-25T00:15:52.537Z,12.30
2018-09-25T00:16:31.313Z,12.30
2018-09-25T00:17:09.850Z,12.30
2018-09-25T00:17:48.471Z,12.30
2018-09-25T00:18:27.221Z,12.30
2018-09-25T00:19:05.854Z,12.30
2018-09-25T00:19:44.611Z,12.30
2018-09-25T00:20:23.392Z,12.30
2018-09-25T00:21:02.057Z,12.20
2018-09-25T00:21:40.849Z,12.20
2018-09-25T00:22:20.371Z,12.20
2018-09-25T00:22:59.758Z,12.30
2018-09-25T00:23:39.100Z,12.30
2018-09-25T00:24:17.834Z,12.30
2018-09-25T00:24:57.179Z,12.20
2018-09-25T00:25:35.921Z,12.20
2018-09-25T00:26:15.289Z,12.20
2018-09-25T00:26:54.791Z,12.20
2018-09-25T00:27:33.426Z,12.20
2018-09-25T00:28:12.847Z,12.20
2018-09-25T00:28:52.364Z,12.20
2018-09-25T00:29:31.967Z,12.20
2018-09-25T00:30:10.619Z,12.20
2018-09-25T00:30:49.267Z,12.20
2018-09-25T00:31:28.024Z,12.20
2018-09-25T00:32:06.741Z,12.20
2018-09-25T00:32:45.397Z,12.20
2018-09-25T00:33:24.253Z,12.20
2018-09-25T00:34:03.983Z,12.20
2018-09-25T00:34:43.324Z,12.20
2018-09-25T00:35:21.959Z,12.10
2018-09-25T00:36:00.560Z,12.20
2018-09-25T00:36:39.343Z,12.10
2018-09-25T00:37:18.123Z,12.10
2018-09-25T00:37:57.630Z,12.10
2018-09-25T00:38:36.240Z,12.00
2018-09-25T00:39:14.869Z,12.10
2018-09-25T00:39:53.501Z,12.10
2018-09-25T00:40:32.112Z,12.10
2018-09-25T00:41:10.856Z,12.10
2018-09-25T00:41:49.443Z,12.10
2018-09-25T00:42:28.252Z,12.10
2018-09-25T00:43:07.657Z,12.00
2018-09-25T00:43:46.413Z,12.00
2018-09-25T00:44:25.155Z,12.10
2018-09-25T00:45:03.921Z,12.10
2018-09-25T00:45:42.692Z,12.10
2018-09-25T00:46:21.327Z,12.10
2018-09-25T00:47:00.156Z,12.10
2018-09-25T00:47:38.673Z,12.10
2018-09-25T00:48:18.055Z,12.10
2018-09-25T00:48:56.759Z,12.10
2018-09-25T00:49:35.520Z,12.10
2018-09-25T00:50:14.946Z,12.00
2018-09-25T00:50:53.670Z,12.00
2018-09-25T00:51:32.422Z,12.00
2018-09-25T00:52:11.127Z,12.00
2018-09-25T00:52:49.771Z,12.00
2018-09-25T00:53:29.328Z,11.90
2018-09-25T00:54:08.192Z,11.90
2018-09-25T00:54:46.928Z,11.90
2018-09-25T00:55:25.556Z,11.90
2018-09-25T00:56:04.289Z,11.80
2018-09-25T00:56:42.921Z,11.90
2018-09-25T00:57:22.296Z,12.00
2018-09-25T00:58:01.048Z,12.00
2018-09-25T00:58:39.840Z,12.00
2018-09-25T00:59:18.597Z,12.00
2018-09-25T00:59:57.316Z,11.90
2018-09-25T01:00:36.050Z,11.90
2018-09-25T01:01:15.575Z,11.90
2018-09-25T01:01:54.328Z,11.30
2018-09-25T01:02:33.711Z,11.80
2018-09-25T01:03:12.424Z,11.80
2018-09-25T01:03:51.884Z,11.80
2018-09-25T01:04:31.219Z,11.80
2018-09-25T01:05:10.174Z,11.80
2018-09-25T01:05:48.893Z,11.90
2018-09-25T01:06:27.649Z,11.90
2018-09-25T01:07:06.388Z,11.90
2018-09-25T01:07:45.142Z,11.90
2018-09-25T01:08:23.887Z,12.00
2018-09-25T01:09:02.508Z,11.90
2018-09-25T01:09:41.236Z,11.90
2018-09-25T01:10:19.972Z,11.90
2018-09-25T01:10:58.785Z,11.90
2018-09-25T01:11:38.301Z,11.90
2018-09-25T01:12:17.069Z,11.90
2018-09-25T01:12:55.860Z,11.90
2018-09-25T01:13:34.582Z,11.90
2018-09-25T01:14:13.343Z,11.90
2018-09-25T01:14:51.979Z,11.90
2018-09-25T01:15:30.720Z,11.80
2018-09-25T01:16:09.360Z,11.10
2018-09-25T01:16:47.985Z,11.90
2018-09-25T01:17:27.372Z,11.90
2018-09-25T01:18:05.979Z,11.80
2018-09-25T01:18:44.749Z,11.90
2018-09-25T01:19:23.529Z,11.90
2018-09-25T01:20:03.016Z,11.90
2018-09-25T01:20:41.845Z,11.90
2018-09-25T01:21:20.624Z,11.80
2018-09-25T01:21:59.386Z,11.80
2018-09-25T01:22:38.756Z,11.80
2018-09-25T01:23:17.588Z,11.80
2018-09-25T01:23:56.208Z,11.80
2018-09-25T01:24:34.929Z,11.80
2018-09-25T01:25:14.291Z,11.70
2018-09-25T01:25:53.029Z,11.70
2018-09-25T01:26:31.781Z,11.70
2018-09-25T01:27:10.419Z,11.70
2018-09-25T01:27:49.152Z,11.80
2018-09-25T01:28:27.917Z,11.80
2018-09-25T01:29:06.654Z,11.80
2018-09-25T01:29:45.404Z,11.80
2018-09-25T01:30:24.889Z,11.80
2018-09-25T01:31:03.620Z,11.80
2018-09-25T01:31:43.029Z,11.70
2018-09-25T01:32:21.663Z,11.70
2018-09-25T01:33:01.183Z,11.70
2018-09-25T01:33:39.888Z,11.70
2018-09-25T01:34:18.643Z,11.70
2018-09-25T01:34:57.446Z,11.70
2018-09-25T01:35:36.939Z,11.70
2018-09-25T01:36:15.709Z,11.70
2018-09-25T01:36:54.457Z,11.70
2018-09-25T01:37:33.829Z,11.70
2018-09-25T01:38:12.567Z,11.70
2018-09-25T01:38:51.276Z,11.70
2018-09-25T01:39:29.905Z,11.70
2018-09-25T01:40:09.421Z,11.70
2018-09-25T01:40:48.191Z,11.70
2018-09-25T01:41:26.820Z,11.70
2018-09-25T01:42:05.567Z,11.70
2018-09-25T01:42:44.407Z,11.70
2018-09-25T01:43:23.784Z,11.70
2018-09-25T01:44:03.294Z,11.70
2018-09-25T01:44:42.276Z,11.70
2018-09-25T01:45:20.999Z,11.70
2018-09-25T01:46:00.390Z,11.70
2018-09-25T01:46:39.022Z,11.70
2018-09-25T01:47:17.609Z,11.70
2018-09-25T01:47:56.371Z,11.70
2018-09-25T01:48:35.130Z,11.70
2018-09-25T01:49:14.584Z,11.70
2018-09-25T01:49:53.293Z,11.70
2018-09-25T01:50:32.048Z,11.70
2018-09-25T01:51:10.805Z,11.70
2018-09-25T01:51:49.536Z,11.70
2018-09-25T01:52:29.033Z,11.70
2018-09-25T01:53:07.791Z,11.70
2018-09-25T01:53:46.407Z,11.70
2018-09-25T01:54:25.185Z,11.60
2018-09-25T01:55:03.932Z,11.60
2018-09-25T01:55:42.691Z,11.60
2018-09-25T01:56:21.401Z,11.60
2018-09-25T01:57:00.175Z,11.60
2018-09-25T01:57:38.827Z,11.60
2018-09-25T01:58:17.479Z,11.60
2018-09-25T01:58:56.243Z,11.60
2018-09-25T01:59:34.947Z,11.60
2018-09-25T02:00:14.384Z,11.50
2018-09-25T02:00:53.825Z,11.60
2018-09-25T02:01:32.578Z,11.60
2018-09-25T02:02:11.190Z,11.60
2018-09-25T02:02:49.804Z,11.60
2018-09-25T02:03:28.447Z,11.60
2018-09-25T02:04:07.181Z,11.50
2018-09-25T02:04:45.932Z,11.50
2018-09-25T02:05:24.679Z,11.50
2018-09-25T02:06:03.304Z,11.50
2018-09-25T02:06:42.044Z,11.50
2018-09-25T02:07:20.670Z,11.50
2018-09-25T02:08:00.025Z,11.50
2018-09-25T02:08:38.787Z,11.50
2018-09-25T02:09:17.572Z,11.50
2018-09-25T02:09:56.308Z,11.50
2018-09-25T02:10:34.941Z,11.10
2018-09-25T02:11:13.588Z,11.50
2018-09-25T02:11:52.593Z,11.50
2018-09-25T02:12:31.328Z,11.50
2018-09-25T02:13:09.967Z,11.50
2018-09-25T02:13:49.515Z,11.40
2018-09-25T02:14:29.079Z,11.40
2018-09-25T02:15:07.820Z,11.50
2018-09-25T02:15:47.213Z,11.40
2018-09-25T02:16:25.975Z,11.40
2018-09-25T02:17:04.727Z,11.40
2018-09-25T02:17:43.328Z,11.40
2018-09-25T02:18:21.918Z,11.30
2018-09-25T02:19:01.400Z,11.30
2018-09-25T02:19:40.783Z,11.30
2018-09-25T02:20:19.534Z,11.30
2018-09-25T02:20:59.054Z,11.30
2018-09-25T02:21:38.455Z,11.30
2018-09-25T02:22:17.204Z,11.40
2018-09-25T02:22:56.026Z,11.30
2018-09-25T02:23:34.664Z,11.30
2018-09-25T02:24:13.390Z,11.30
2018-09-25T02:24:52.096Z,11.30
2018-09-25T02:25:30.792Z,11.30
2018-09-25T02:26:09.415Z,11.30
2018-09-25T02:26:48.824Z,11.30
2018-09-25T02:27:27.441Z,11.20
2018-09-25T02:28:06.909Z,11.20
2018-09-25T02:28:45.514Z,11.20
2018-09-25T02:29:24.255Z,11.30
2018-09-25T02:30:02.876Z,11.20
2018-09-25T02:30:41.581Z,11.30
2018-09-25T02:31:20.227Z,11.30
2018-09-25T02:31:59.732Z,11.60
2018-09-25T02:32:38.475Z,11.30
2018-09-25T02:33:17.116Z,11.30
2018-09-25T02:33:55.866Z,11.30
2018-09-25T02:34:35.245Z,11.30
2018-09-25T02:35:13.997Z,11.30
2018-09-25T02:35:53.551Z,11.30
2018-09-25T02:36:32.302Z,11.30
2018-09-25T02:37:10.832Z,11.30
2018-09-25T02:37:50.252Z,11.30
2018-09-25T02:38:28.897Z,11.30
2018-09-25T02:39:07.505Z,11.30
2018-09-25T02:39:46.247Z,11.30
2018-09-25T02:40:24.875Z,11.30
2018-09-25T02:41:03.508Z,11.30
2018-09-25T02:41:42.251Z,11.30
2018-09-25T02:42:21.015Z,11.30
2018-09-25T02:43:00.521Z,11.20
2018-09-25T02:43:39.176Z,11.30
2018-09-25T02:44:17.814Z,11.20
2018-09-25T02:44:56.444Z,11.20
2018-09-25T02:45:35.062Z,11.20
2018-09-25T02:46:14.559Z,11.20
2018-09-25T02:46:53.262Z,11.20
2018-09-25T02:47:32.006Z,11.20
2018-09-25T02:48:11.392Z,11.20
2018-09-25T02:48:50.198Z,11.20
2018-09-25T02:49:28.947Z,11.20
2018-09-25T02:50:08.376Z,11.30
2018-09-25T02:50:47.893Z,11.30
2018-09-25T02:51:27.288Z,11.30
2018-09-25T02:52:06.023Z,11.30
2018-09-25T02:52:45.401Z,11.30
2018-09-25T02:53:24.159Z,11.30
2018-09-25T02:54:03.734Z,11.30
2018-09-25T02:54:42.438Z,11.20
2018-09-25T02:55:21.064Z,11.20
2018-09-25T02:55:59.816Z,11.30
2018-09-25T02:56:39.342Z,11.30
2018-09-25T02:57:18.738Z,11.30
2018-09-25T02:57:57.324Z,11.30
2018-09-25T02:58:36.064Z,11.30
2018-09-25T02:59:15.486Z,11.30
2018-09-25T02:59:54.900Z,11.30
2018-09-25T03:00:33.675Z,11.30
2018-09-25T03:01:12.397Z,11.30
2018-09-25T03:01:51.140Z,11.30
2018-09-25T03:02:30.501Z,11.30
2018-09-25T03:03:09.084Z,11.30
2018-09-25T03:03:47.737Z,11.30
2018-09-25T03:04:26.316Z,11.30
2018-09-25T03:05:04.942Z,11.30
2018-09-25T03:05:43.556Z,11.20
2018-09-25T03:06:22.325Z,11.20
2018-09-25T03:07:01.117Z,11.30
2018-09-25T03:07:40.538Z,11.30
2018-09-25T03:08:19.254Z,11.30
2018-09-25T03:08:57.916Z,11.30
2018-09-25T03:09:36.848Z,11.30
2018-09-25T03:10:15.549Z,11.30
2018-09-25T03:10:54.164Z,11.30
2018-09-25T03:11:33.752Z,11.30
2018-09-25T03:12:12.468Z,11.30
2018-09-25T03:12:51.248Z,11.30
2018-09-25T03:13:30.072Z,11.30
2018-09-25T03:14:08.714Z,11.30
2018-09-25T03:14:47.460Z,11.30
2018-09-25T03:15:26.087Z,11.30
2018-09-25T03:16:04.717Z,11.30
2018-09-25T03:16:43.364Z,11.30
2018-09-25T03:17:22.872Z,11.30
2018-09-25T03:18:01.504Z,11.30
2018-09-25T03:18:41.008Z,11.30
2018-09-25T03:19:20.626Z,11.30
2018-09-25T03:20:00.083Z,11.30
2018-09-25T03:20:39.464Z,11.40
2018-09-25T03:21:18.234Z,11.40
2018-09-25T03:21:56.973Z,11.30
2018-09-25T03:22:35.724Z,11.30
2018-09-25T03:23:15.086Z,11.30
2018-09-25T03:23:53.908Z,11.30
2018-09-25T03:24:33.237Z,11.30
2018-09-25T03:25:12.007Z,11.30
2018-09-25T03:25:50.733Z,11.30
2018-09-25T03:26:29.739Z,11.20
2018-09-25T03:27:08.354Z,11.30
2018-09-25T03:27:47.112Z,11.30
2018-09-25T03:28:26.652Z,11.20
2018-09-25T03:29:06.082Z,11.20
2018-09-25T03:29:45.552Z,11.20
2018-09-25T03:30:24.308Z,11.20
2018-09-25T03:31:03.707Z,11.20
2018-09-25T03:31:42.353Z,11.20
2018-09-25T03:32:21.187Z,11.20
2018-09-25T03:32:59.805Z,11.30
2018-09-25T03:33:38.532Z,11.20
2018-09-25T03:34:17.181Z,11.20
2018-09-25T03:34:55.938Z,11.20
2018-09-25T03:35:34.669Z,11.20
2018-09-25T03:36:13.399Z,11.20
2018-09-25T03:36:52.928Z,11.20
2018-09-25T03:37:31.679Z,11.20
2018-09-25T03:38:10.441Z,11.20
2018-09-25T03:38:49.922Z,11.20
2018-09-25T03:39:28.691Z,11.20
2018-09-25T03:40:07.471Z,11.20
2018-09-25T03:40:47.060Z,11.20
2018-09-25T03:41:25.812Z,11.20
2018-09-25T03:42:05.308Z,11.20
2018-09-25T03:42:44.067Z,11.20
2018-09-25T03:43:23.444Z,11.20
2018-09-25T03:44:02.064Z,11.20
2018-09-25T03:44:40.818Z,11.20
2018-09-25T03:45:19.527Z,11.20
2018-09-25T03:45:58.161Z,11.20
2018-09-25T03:46:36.875Z,11.20
2018-09-25T03:47:15.623Z,11.20
2018-09-25T03:47:55.016Z,11.10
2018-09-25T03:48:33.780Z,11.10
2018-09-25T03:49:12.515Z,11.10
2018-09-25T03:49:51.150Z,11.10
2018-09-25T03:50:30.655Z,11.10
2018-09-25T03:51:09.232Z,11.10
2018-09-25T03:51:47.856Z,11.10
2018-09-25T03:52:26.600Z,11.10
2018-09-25T03:53:06.083Z,11.10
2018-09-25T03:53:44.732Z,11.10
2018-09-25T03:54:24.268Z,11.10
2018-09-25T03:55:03.820Z,11.10
2018-09-25T03:55:42.567Z,11.00
2018-09-25T03:56:21.207Z,11.10
2018-09-25T03:57:00.718Z,11.00
2018-09-25T03:57:40.233Z,11.00
2018-09-25T03:58:18.970Z,11.00
2018-09-25T03:58:58.472Z,11.10
2018-09-25T03:59:37.130Z,11.10
2018-09-25T04:00:16.552Z,11.00
2018-09-25T04:00:55.536Z,11.00
2018-09-25T04:01:34.920Z,11.00
2018-09-25T04:02:13.599Z,11.00
2018-09-25T04:02:52.204Z,11.00
2018-09-25T04:03:30.830Z,11.00
2018-09-25T04:04:09.457Z,11.00
2018-09-25T04:04:48.207Z,11.00
2018-09-25T04:05:26.839Z,11.00
2018-09-25T04:06:05.637Z,11.00
2018-09-25T04:06:44.338Z,11.00
2018-09-25T04:07:23.100Z,11.00
2018-09-25T04:08:01.872Z,11.00
2018-09-25T04:08:40.506Z,11.00
2018-09-25T04:09:19.218Z,11.00
2018-09-25T04:09:57.981Z,11.00
2018-09-25T04:10:36.738Z,11.00
2018-09-25T04:11:15.374Z,10.90
2018-09-25T04:11:54.856Z,10.90
2018-09-25T04:12:33.611Z,10.90
2018-09-25T04:13:13.001Z,10.90
2018-09-25T04:13:52.373Z,10.90
2018-09-25T04:14:31.132Z,10.90
2018-09-25T04:15:09.773Z,10.90
2018-09-25T04:15:49.265Z,10.90
2018-09-25T04:16:28.019Z,10.90
2018-09-25T04:17:07.371Z,10.90
2018-09-25T04:17:46.137Z,10.90
2018-09-25T04:18:25.635Z,10.90
2018-09-25T04:19:04.408Z,10.90
2018-09-25T04:19:43.288Z,10.90
2018-09-25T04:20:22.265Z,10.90
2018-09-25T04:21:00.879Z,10.90
2018-09-25T04:21:39.500Z,10.90
2018-09-25T04:22:19.005Z,10.90
2018-09-25T04:22:57.821Z,10.90
2018-09-25T04:23:36.423Z,10.90
2018-09-25T04:24:15.195Z,10.90
2018-09-25T04:24:53.947Z,10.90
2018-09-25T04:25:32.971Z,10.90
2018-09-25T04:26:12.712Z,10.80
2018-09-25T04:26:51.463Z,10.80
2018-09-25T04:27:30.427Z,10.80
2018-09-25T04:28:10.135Z,10.90
2018-09-25T04:28:48.948Z,10.90
2018-09-25T04:29:27.683Z,10.80
2018-09-25T04:30:07.057Z,10.80
2018-09-25T04:30:45.815Z,10.80
2018-09-25T04:31:24.581Z,10.80
2018-09-25T04:32:03.219Z,10.80
2018-09-25T04:32:42.694Z,10.80
2018-09-25T04:33:21.372Z,10.80
2018-09-25T04:33:59.998Z,10.80
2018-09-25T04:34:38.770Z,10.80
2018-09-25T04:35:18.316Z,10.80
2018-09-25T04:35:57.078Z,10.80
2018-09-25T04:36:35.832Z,10.80
2018-09-25T04:37:14.633Z,10.80
2018-09-25T04:37:53.203Z,10.80
2018-09-25T04:38:31.954Z,10.80
2018-09-25T04:39:10.591Z,10.80
2018-09-25T04:39:50.107Z,10.70
2018-09-25T04:40:28.887Z,10.70
2018-09-25T04:41:07.611Z,10.70
2018-09-25T04:41:46.393Z,10.70
2018-09-25T04:42:25.773Z,10.70
2018-09-25T04:43:04.520Z,10.70
2018-09-25T04:43:43.936Z,10.70
2018-09-25T04:44:22.540Z,10.70
2018-09-25T04:45:01.281Z,10.70
2018-09-25T04:45:39.916Z,10.70
2018-09-25T04:46:18.657Z,10.70
2018-09-25T04:46:57.305Z,10.70
2018-09-25T04:47:36.052Z,10.70
2018-09-25T04:48:14.803Z,10.70
2018-09-25T04:48:54.320Z,10.60
2018-09-25T04:49:33.824Z,10.60
2018-09-25T04:50:12.583Z,10.10
2018-09-25T04:50:51.302Z,10.60
2018-09-25T04:51:30.129Z,10.60
2018-09-25T04:52:08.831Z,10.70
2018-09-25T04:52:48.239Z,10.70
2018-09-25T04:53:27.607Z,10.60
2018-09-25T04:54:06.369Z,10.60
2018-09-25T04:54:45.034Z,10.60
2018-09-25T04:55:24.567Z,10.60
2018-09-25T04:56:03.188Z,10.60
2018-09-25T04:56:42.038Z,10.60
2018-09-25T04:57:21.372Z,10.60
2018-09-25T04:58:00.169Z,10.60
2018-09-25T04:58:38.895Z,10.60
2018-09-25T04:59:17.647Z,10.60
2018-09-25T04:59:56.399Z,10.60
2018-09-25T05:00:35.236Z,10.60
2018-09-25T05:01:13.974Z,10.60
2018-09-25T05:01:53.488Z,10.50
2018-09-25T05:02:32.860Z,10.40
2018-09-25T05:03:11.625Z,10.40
2018-09-25T05:03:50.374Z,10.50
2018-09-25T05:04:29.068Z,10.40
2018-09-25T05:05:07.785Z,10.40
2018-09-25T05:05:46.526Z,10.40
2018-09-25T05:06:25.188Z,10.40
2018-09-25T05:07:03.920Z,10.40
2018-09-25T05:07:42.676Z,10.40
2018-09-25T05:08:22.035Z,10.70
2018-09-25T05:09:00.747Z,10.40
2018-09-25T05:09:39.408Z,10.40
2018-09-25T05:10:18.888Z,10.50
2018-09-25T05:10:57.520Z,10.50
2018-09-25T05:11:36.285Z,10.40
2018-09-25T05:12:15.087Z,10.40
2018-09-25T05:12:53.734Z,10.40
2018-09-25T05:13:32.367Z,10.40
2018-09-25T05:14:11.123Z,10.40
2018-09-25T05:14:49.738Z,10.40
2018-09-25T05:15:28.495Z,10.50
2018-09-25T05:16:08.032Z,10.50
2018-09-25T05:16:47.547Z,10.40
2018-09-25T05:17:26.175Z,10.40
2018-09-25T05:18:05.673Z,10.40
2018-09-25T05:18:44.308Z,10.40
2018-09-25T05:19:23.020Z,10.40
2018-09-25T05:20:01.764Z,10.40
2018-09-25T05:20:40.533Z,10.40
2018-09-25T05:21:19.217Z,10.40
2018-09-25T05:21:58.794Z,10.40
2018-09-25T05:22:37.531Z,10.40
2018-09-25T05:23:16.286Z,10.40
2018-09-25T05:23:55.024Z,10.40
2018-09-25T05:24:33.663Z,10.40
2018-09-25T05:25:12.535Z,10.40
2018-09-25T05:25:51.278Z,10.50
2018-09-25T05:26:29.861Z,10.50
2018-09-25T05:27:08.599Z,10.40
2018-09-25T05:27:48.242Z,10.40
2018-09-25T05:28:27.765Z,10.40
2018-09-25T05:29:07.329Z,10.40
2018-09-25T05:29:46.064Z,10.30
2018-09-25T05:30:24.803Z,10.60
2018-09-25T05:31:04.162Z,10.30
2018-09-25T05:31:42.929Z,10.30
2018-09-25T05:32:21.596Z,10.40
2018-09-25T05:33:00.356Z,10.40
2018-09-25T05:33:39.758Z,10.30
2018-09-25T05:34:18.496Z,10.30
2018-09-25T05:34:57.285Z,10.30
2018-09-25T05:35:35.860Z,10.30
2018-09-25T05:36:14.492Z,10.40
2018-09-25T05:36:53.257Z,10.40
2018-09-25T05:37:31.986Z,10.40
2018-09-25T05:38:10.760Z,10.40
2018-09-25T05:38:49.403Z,10.40
2018-09-25T05:39:28.134Z,10.40
2018-09-25T05:40:06.793Z,10.40
2018-09-25T05:40:45.412Z,10.40
2018-09-25T05:41:24.024Z,10.40
2018-09-25T05:42:03.052Z,10.40
2018-09-25T05:42:41.828Z,10.40
2018-09-25T05:43:20.599Z,10.40
2018-09-25T05:44:00.031Z,10.40
2018-09-25T05:44:38.758Z,10.40
2018-09-25T05:45:17.396Z,10.40
2018-09-25T05:45:56.232Z,10.40
2018-09-25T05:46:34.945Z,10.40
2018-09-25T05:47:14.499Z,10.40
2018-09-25T05:47:53.222Z,10.40
2018-09-25T05:48:32.100Z,10.40
2018-09-25T05:49:11.503Z,10.30
2018-09-25T05:49:50.133Z,10.40
2018-09-25T05:50:29.500Z,10.30
2018-09-25T05:51:08.125Z,10.30
2018-09-25T05:51:46.767Z,10.30
2018-09-25T05:52:26.300Z,10.30
2018-09-25T05:53:05.082Z,10.30
2018-09-25T05:53:43.895Z,10.30
2018-09-25T05:54:23.400Z,10.30
2018-09-25T05:55:02.154Z,10.30
2018-09-25T05:55:41.538Z,10.30
2018-09-25T05:56:20.216Z,10.30
2018-09-25T05:56:58.978Z,10.30
2018-09-25T05:57:38.305Z,10.30
2018-09-25T05:58:17.813Z,10.40
2018-09-25T05:58:56.648Z,10.40
2018-09-25T05:59:36.045Z,10.90
2018-09-25T06:00:14.882Z,10.30
2018-09-25T06:00:54.399Z,10.30
2018-09-25T06:01:33.077Z,10.30
2018-09-25T06:02:11.815Z,10.40
2018-09-25T06:02:51.327Z,10.30
2018-09-25T06:03:29.872Z,10.30
2018-09-25T06:04:08.632Z,10.40
2018-09-25T06:04:47.453Z,10.40
2018-09-25T06:05:26.110Z,10.40
2018-09-25T06:06:04.880Z,10.40
2018-09-25T06:06:44.422Z,10.40
2018-09-25T06:07:23.076Z,10.40
2018-09-25T06:08:01.999Z,10.40
2018-09-25T06:08:40.758Z,10.40
2018-09-25T06:09:19.397Z,10.40
2018-09-25T06:09:58.085Z,10.30
2018-09-25T06:10:36.827Z,10.40
2018-09-25T06:11:15.407Z,10.40
2018-09-25T06:11:54.380Z,10.50
2018-09-25T06:12:33.052Z,10.40
2018-09-25T06:13:12.567Z,10.40
2018-09-25T06:13:51.311Z,10.30
2018-09-25T06:14:30.763Z,10.40
2018-09-25T06:15:09.529Z,10.40
2018-09-25T06:15:48.361Z,10.50
2018-09-25T06:16:26.927Z,10.50
2018-09-25T06:17:05.562Z,10.50
2018-09-25T06:17:44.992Z,10.50
2018-09-25T06:18:23.767Z,10.50
2018-09-25T06:19:02.518Z,10.50
2018-09-25T06:19:42.045Z,10.50
2018-09-25T06:20:21.533Z,10.50
2018-09-25T06:21:00.282Z,10.50
2018-09-25T06:21:39.010Z,10.50
2018-09-25T06:22:17.614Z,10.50
2018-09-25T06:22:56.410Z,10.50
2018-09-25T06:23:35.012Z,10.50
2018-09-25T06:24:13.733Z,10.50
2018-09-25T06:24:52.453Z,10.50
2018-09-25T06:25:31.160Z,10.50
2018-09-25T06:26:09.780Z,10.50
2018-09-25T06:26:48.521Z,10.50
2018-09-25T06:27:27.286Z,10.60
2018-09-25T06:28:05.975Z,10.60
2018-09-25T06:28:44.665Z,10.60
2018-09-25T06:29:23.236Z,10.60
2018-09-25T06:30:01.961Z,10.60
2018-09-25T06:30:40.894Z,10.60
2018-09-25T06:31:19.883Z,10.60
2018-09-25T06:31:58.589Z,10.70
2018-09-25T06:32:37.213Z,10.70
2018-09-25T06:33:16.620Z,10.70
2018-09-25T06:33:56.143Z,10.70
2018-09-25T06:34:34.794Z,10.60
2018-09-25T06:35:14.443Z,10.70
2018-09-25T06:35:53.047Z,10.70
2018-09-25T06:36:31.789Z,10.70
2018-09-25T06:37:10.452Z,10.70
2018-09-25T06:37:49.960Z,10.80
2018-09-25T06:38:28.667Z,10.70
2018-09-25T06:39:07.290Z,10.80
2018-09-25T06:39:46.014Z,10.80
2018-09-25T06:40:25.413Z,10.80
2018-09-25T06:41:04.195Z,10.80
2018-09-25T06:41:43.720Z,10.80
2018-09-25T06:42:23.134Z,10.90
2018-09-25T06:43:02.653Z,10.90
2018-09-25T06:43:41.444Z,10.90
2018-09-25T06:44:20.188Z,10.90
2018-09-25T06:44:59.624Z,10.90
2018-09-25T06:45:39.008Z,11.00
2018-09-25T06:46:17.795Z,10.90
2018-09-25T06:46:56.476Z,11.00
2018-09-25T06:47:35.230Z,11.00
2018-09-25T06:48:14.887Z,11.00
2018-09-25T06:48:54.323Z,11.00
2018-09-25T06:49:33.688Z,11.00
2018-09-25T06:50:12.462Z,11.00
2018-09-25T06:50:51.232Z,11.00
2018-09-25T06:51:30.035Z,12.10
2018-09-25T06:52:08.744Z,11.00
2018-09-25T06:52:47.724Z,11.00
2018-09-25T06:53:26.373Z,11.00
2018-09-25T06:54:05.022Z,11.00
2018-09-25T06:54:43.832Z,11.00
2018-09-25T06:55:22.550Z,11.10
2018-09-25T06:56:01.208Z,11.00
2018-09-25T06:56:40.095Z,11.10
2018-09-25T06:57:18.845Z,11.10
2018-09-25T06:57:58.228Z,11.20
2018-09-25T06:58:36.972Z,11.20
2018-09-25T06:59:16.408Z,10.80
2018-09-25T06:59:56.004Z,11.20
2018-09-25T07:00:34.624Z,11.20
2018-09-25T07:01:14.149Z,11.20
2018-09-25T07:01:53.533Z,11.20
2018-09-25T07:02:32.156Z,11.20
2018-09-25T07:03:10.821Z,11.20
2018-09-25T07:03:49.545Z,11.20
2018-09-25T07:04:28.319Z,11.20
2018-09-25T07:05:06.977Z,11.30
2018-09-25T07:05:45.723Z,11.30
2018-09-25T07:06:25.227Z,11.30
2018-09-25T07:07:04.010Z,11.30
2018-09-25T07:07:43.519Z,11.30
2018-09-25T07:08:22.476Z,11.30
2018-09-25T07:09:01.283Z,11.40
2018-09-25T07:09:40.087Z,11.40
2018-09-25T07:10:18.914Z,11.40
2018-09-25T07:10:58.214Z,11.50
2018-09-25T07:11:36.976Z,11.50
2018-09-25T07:12:15.800Z,11.50
2018-09-25T07:12:54.478Z,11.50
2018-09-25T07:13:34.008Z,11.60
2018-09-25T07:14:13.666Z,11.60
2018-09-25T07:14:52.358Z,11.60
2018-09-25T07:15:31.137Z,11.60
2018-09-25T07:16:09.856Z,11.60
2018-09-25T07:16:49.288Z,11.70
2018-09-25T07:17:28.055Z,11.60
2018-09-25T07:18:06.727Z,11.70
2018-09-25T07:18:45.285Z,11.70
2018-09-25T07:19:24.046Z,11.70
2018-09-25T07:20:02.809Z,11.70
2018-09-25T07:20:42.306Z,11.80
2018-09-25T07:21:20.929Z,11.80
2018-09-25T07:21:59.589Z,11.80
2018-09-25T07:22:38.261Z,11.80
2018-09-25T07:23:16.964Z,11.80
2018-09-25T07:23:56.693Z,11.90
2018-09-25T07:24:35.511Z,11.90
2018-09-25T07:25:14.773Z,11.90
2018-09-25T07:25:53.600Z,11.90
2018-09-25T07:26:32.379Z,11.90
2018-09-25T07:27:10.995Z,12.00
2018-09-25T07:27:49.628Z,12.00
2018-09-25T07:28:28.328Z,12.00
2018-09-25T07:29:07.105Z,12.00
2018-09-25T07:29:46.487Z,12.00
2018-09-25T07:30:26.044Z,12.00
2018-09-25T07:31:04.938Z,12.00
2018-09-25T07:31:43.639Z,12.00
2018-09-25T07:32:23.220Z,12.10
2018-09-25T07:33:01.986Z,12.10
2018-09-25T07:33:40.606Z,12.10
2018-09-25T07:34:19.196Z,12.20
2018-09-25T07:34:58.685Z,12.20
2018-09-25T07:35:37.328Z,12.20
2018-09-25T07:36:16.840Z,12.20
2018-09-25T07:36:55.520Z,12.20
2018-09-25T07:37:34.340Z,12.30
2018-09-25T07:38:13.075Z,12.30
2018-09-25T07:38:52.552Z,12.30
2018-09-25T07:39:31.353Z,12.30
2018-09-25T07:40:10.003Z,12.40
2018-09-25T07:40:49.382Z,12.40
2018-09-25T07:41:28.129Z,12.40
2018-09-25T07:42:06.761Z,12.50
2018-09-25T07:42:46.144Z,12.50
2018-09-25T07:43:24.783Z,12.50
2018-09-25T07:44:03.805Z,12.60
2018-09-25T07:44:43.136Z,12.60
2018-09-25T07:45:21.885Z,12.60
2018-09-25T07:46:00.495Z,12.60
2018-09-25T07:46:39.337Z,12.60
2018-09-25T07:47:18.845Z,12.60
2018-09-25T07:47:57.674Z,12.60
2018-09-25T07:48:37.185Z,12.60
2018-09-25T07:49:15.944Z,12.60
2018-09-25T07:49:54.664Z,12.60
2018-09-25T07:50:33.474Z,12.70
2018-09-25T07:51:12.224Z,12.70
2018-09-25T07:51:50.868Z,12.70
2018-09-25T07:52:29.629Z,12.70
2018-09-25T07:53:08.405Z,12.70
2018-09-25T07:53:47.135Z,12.80
2018-09-25T07:54:25.744Z,12.80
2018-09-25T07:55:04.495Z,12.80
2018-09-25T07:55:43.931Z,12.80
2018-09-25T07:56:22.530Z,12.80
2018-09-25T07:57:01.311Z,12.90
2018-09-25T07:57:40.044Z,12.90
2018-09-25T07:58:18.624Z,12.90
2018-09-25T07:58:58.124Z,12.90
2018-09-25T07:59:36.747Z,12.90
2018-09-25T08:00:16.149Z,12.90
2018-09-25T08:00:55.451Z,13.00
2018-09-25T08:01:34.214Z,12.90
2018-09-25T08:02:13.611Z,13.00
2018-09-25T08:02:52.365Z,13.00
2018-09-25T08:03:31.158Z,13.00
2018-09-25T08:04:09.716Z,13.00
2018-09-25T08:04:48.459Z,13.10
2018-09-25T08:05:27.222Z,13.10
2018-09-25T08:06:05.948Z,13.10
2018-09-25T08:06:44.560Z,13.10
2018-09-25T08:07:23.220Z,14.10
2018-09-25T08:08:01.956Z,13.20
2018-09-25T08:08:40.696Z,13.20
2018-09-25T08:09:19.502Z,13.20
2018-09-25T08:09:58.250Z,13.20
2018-09-25T08:10:37.750Z,13.20
2018-09-25T08:11:16.497Z,13.20
2018-09-25T08:11:55.118Z,13.20
2018-09-25T08:12:33.855Z,13.20
2018-09-25T08:13:12.581Z,13.20
2018-09-25T08:13:51.220Z,13.30
2018-09-25T08:14:30.009Z,13.30
2018-09-25T08:15:09.394Z,13.40
2018-09-25T08:15:47.985Z,13.40
2018-09-25T08:16:26.732Z,13.50
2018-09-25T08:17:05.472Z,13.50
2018-09-25T08:17:44.220Z,13.50
2018-09-25T08:18:22.856Z,13.60
2018-09-25T08:19:01.642Z,13.60
2018-09-25T08:19:40.357Z,13.60
2018-09-25T08:20:19.072Z,13.60
2018-09-25T08:20:57.849Z,13.60